createdAt,value
2018-03-30T00:00:35.750Z,100630.11
2018-03-30T00:05:36.697Z,100640.83
2018-03-30T00:10:43.674Z,100641.67
2018-03-30T00:15:44.671Z,100640.31
2018-03-30T00:20:45.627Z,100644.52
2018-03-30T00:25:46.588Z,100654.45
2018-03-30T00:30:47.566Z,100651.00
2018-03-30T00:35:48.509Z,100645.98
2018-03-30T00:40:49.460Z,100642.05
2018-03-30T00:45:50.421Z,100633.59
2018-03-30T00:50:51.416Z,100642.11
2018-03-30T00:55:52.403Z,100639.47
2018-03-30T01:00:53.353Z,100637.09
2018-03-30T01:05:54.312Z,100635.87
2018-03-30T01:10:55.264Z,100625.80
2018-03-30T01:15:56.217Z,100623.87
2018-03-30T01:20:57.148Z,100632.62
2018-03-30T01:25:58.126Z,100640.69
2018-03-30T01:30:59.091Z,100644.09
2018-03-30T01:36:00.033Z,100637.70
2018-03-30T01:41:00.972Z,100626.61
2018-03-30T01:46:01.936Z,100623.53
2018-03-30T01:51:02.907Z,100633.41
2018-03-30T01:56:03.909Z,100649.38
2018-03-30T02:01:04.886Z,100651.61
2018-03-30T02:06:05.826Z,100638.23
2018-03-30T02:11:06.766Z,100635.08
2018-03-30T02:16:07.745Z,100631.34
2018-03-30T02:21:08.710Z,100635.38
2018-03-30T02:26:09.654Z,100631.33
2018-03-30T02:31:10.608Z,100645.38
2018-03-30T02:36:11.560Z,100651.69
2018-03-30T02:41:12.518Z,100643.31
2018-03-30T02:46:13.476Z,100636.67
2018-03-30T02:51:14.428Z,100644.55
2018-03-30T02:56:15.414Z,100652.99
2018-03-30T03:01:16.366Z,100644.42
2018-03-30T03:06:17.319Z,100649.16
2018-03-30T03:11:18.261Z,100649.38
2018-03-30T03:16:19.223Z,100655.66
2018-03-30T03:21:20.173Z,100660.98
2018-03-30T03:26:21.141Z,100660.81
2018-03-30T03:31:22.094Z,100656.64
2018-03-30T03:36:23.049Z,100654.84
2018-03-30T03:41:23.980Z,100652.69
2018-03-30T03:46:24.954Z,100646.36
2018-03-30T03:51:25.904Z,100648.35
2018-03-30T03:56:26.915Z,100651.06
2018-03-30T04:01:27.856Z,100640.89
2018-03-30T04:06:28.808Z,100650.80
2018-03-30T04:11:29.745Z,100653.45
2018-03-30T04:16:30.698Z,100652.92
2018-03-30T04:21:31.650Z,100643.58
2018-03-30T04:26:32.602Z,100646.38
2018-03-30T04:31:33.549Z,100653.48
2018-03-30T04:36:34.491Z,100654.64
2018-03-30T04:41:35.417Z,100654.36
2018-03-30T04:46:36.375Z,100653.28
2018-03-30T04:51:37.344Z,100649.86
2018-03-30T04:56:38.321Z,100646.13
2018-03-30T05:01:39.276Z,100639.83
2018-03-30T05:06:40.225Z,100643.58
2018-03-30T05:11:41.157Z,100648.46
2018-03-30T05:16:42.105Z,100653.45
2018-03-30T05:21:43.074Z,100638.56
2018-03-30T05:26:44.021Z,100633.20
2018-03-30T05:31:45.004Z,100637.02
2018-03-30T05:36:45.967Z,100647.37
2018-03-30T05:41:46.915Z,100648.09
2018-03-30T05:46:47.880Z,100646.01
2018-03-30T05:51:48.844Z,100644.64
2018-03-30T05:56:49.834Z,100657.53
2018-03-30T06:01:50.789Z,100654.72
2018-03-30T06:06:51.736Z,100656.36
2018-03-30T06:11:52.707Z,100655.70
2018-03-30T06:16:53.653Z,100655.13
2018-03-30T06:21:54.620Z,100659.80
2018-03-30T06:26:55.595Z,100660.40
2018-03-30T06:31:56.568Z,100657.34
2018-03-30T06:36:57.542Z,100666.50
2018-03-30T06:41:58.504Z,100665.51
2018-03-30T06:46:59.834Z,100675.95
2018-03-30T06:52:00.837Z,100676.19
2018-03-30T06:57:02.866Z,100685.53
2018-03-30T07:02:03.841Z,100686.12
2018-03-30T07:07:04.796Z,100689.91
2018-03-30T07:12:05.767Z,100695.44
2018-03-30T07:17:06.745Z,100695.16
2018-03-30T07:22:07.691Z,100694.86
2018-03-30T07:27:08.662Z,100688.78
2018-03-30T07:32:09.609Z,100688.34
2018-03-30T07:37:10.571Z,100694.48
2018-03-30T07:42:11.537Z,100689.88
2018-03-30T07:47:12.551Z,100684.75
2018-03-30T07:52:13.490Z,100691.77
2018-03-30T07:57:14.479Z,100685.86
2018-03-30T08:02:15.464Z,100686.55
2018-03-30T08:07:16.437Z,100687.60
2018-03-30T08:12:17.418Z,100687.98
2018-03-30T08:17:18.465Z,100691.41
2018-03-30T08:22:19.442Z,100689.52
2018-03-30T08:27:20.380Z,100685.30
2018-03-30T08:32:21.397Z,100687.70
